Time;durP1;ratioP1;P1;durP2;ratioP2;P2;SDS_P1;SDS_P2;PMS_P1;PMS_P2;Temp;Humidity;BMP_temperature;BMP_pressure;BME280_temperature;BME280_humidity;BME280_pressure;Samples;Min_cycle;Max_cycle;Signal;HPM_P1;HPM_P2
2022/05/01 00:00:48;;;;;;;0.00;0.00;;;;;;;12.30;74.90;101662.22;7350789;19;19998;-63
2022/05/01 00:03:30;;;;;;;0.00;0.00;;;;;;;12.30;74.58;101659.59;7360390;19;20026;-63
2022/05/01 00:06:00;;;;;;;0.00;0.00;;;;;;;12.31;73.54;101661.31;7359057;19;20013;-62
2022/05/01 00:08:27;;;;;;;0.00;0.00;;;;;;;12.30;74.86;101664.81;7354704;19;20026;-62
2022/05/01 00:10:53;;;;;;;0.00;0.00;;;;;;;12.30;75.05;101659.59;7359597;19;20020;-61
2022/05/01 00:13:19;;;;;;;0.10;0.10;;;;;;;12.30;75.14;101649.13;7359146;19;20046;-64
2022/05/01 00:15:45;;;;;;;0.03;0.03;;;;;;;12.16;74.45;101634.44;7353904;19;20614;-62
2022/05/01 00:18:10;;;;;;;0.10;0.10;;;;;;;12.31;74.11;101646.47;7360244;19;20660;-62
2022/05/01 00:20:36;;;;;;;0.03;0.03;;;;;;;12.28;73.37;101646.53;7357076;19;20013;-62
2022/05/01 00:23:02;;;;;;;0.00;0.00;;;;;;;12.28;74.41;101646.53;7349535;19;20010;-61
2022/05/01 00:25:27;;;;;;;0.00;0.00;;;;;;;12.31;74.26;101651.69;7359078;19;20002;-62
2022/05/01 00:27:53;;;;;;;0.00;0.00;;;;;;;12.32;74.18;101649.97;7353709;19;20017;-59
2022/05/01 00:30:18;;;;;;;0.00;0.00;;;;;;;12.32;74.03;101642.97;7360402;19;20002;-63
2022/05/01 00:38:11;;;;;;;0.00;0.00;;;;;;;12.31;74.34;101642.97;7352868;19;20013;-63
2022/05/01 00:40:37;;;;;;;0.00;0.00;;;;;;;12.23;73.99;101639.63;7350009;19;20862;-62
2022/05/01 00:43:04;;;;;;;0.00;0.00;;;;;;;12.30;74.29;101649.13;7339342;19;20010;-60
2022/05/01 00:45:33;;;;;;;0.00;0.00;;;;;;;12.21;74.19;101623.91;7359754;19;21049;-64
2022/05/01 00:47:58;;;;;;;0.00;0.00;;;;;;;12.30;74.53;101644.75;7352360;19;20014;-63
2022/05/01 00:50:24;;;;;;;0.00;0.00;;;;;;;12.31;74.48;101635.13;7359959;19;20034;-62
2022/05/01 00:52:51;;;;;;;0.00;0.00;;;;;;;12.31;74.33;101635.13;7360702;19;20398;-63
2022/05/01 00:55:16;;;;;;;0.00;0.00;;;;;;;12.32;74.44;101631.66;7357341;19;20040;-62
2022/05/01 00:57:45;;;;;;;0.00;0.00;;;;;;;12.31;74.33;101628.13;7358490;19;20035;-63
2022/05/01 01:00:11;;;;;;;0.10;0.10;;;;;;;12.31;74.78;101616.78;7362565;19;20770;-62
2022/05/01 01:02:37;;;;;;;0.00;0.00;;;;;;;12.30;73.87;101612.44;7359156;19;20925;-64
2022/05/01 01:05:03;;;;;;;0.00;0.00;;;;;;;12.29;74.47;101610.72;7359803;19;20010;-61
2022/05/01 01:07:29;;;;;;;0.00;0.00;;;;;;;12.28;74.24;101604.63;7359149;19;20002;-63
2022/05/01 01:09:54;;;;;;;0.00;0.00;;;;;;;12.24;74.29;101594.22;7361889;19;19999;-63
2022/05/01 01:15:10;;;;;;;0.00;0.00;;;;;;;12.27;74.27;101599.41;7262013;19;2004420;-63
2022/05/01 01:17:43;;;;;;;0.10;0.10;;;;;;;12.28;74.41;101609.00;7350745;19;20003;-63
2022/05/01 01:20:17;;;;;;;0.00;0.00;;;;;;;12.28;74.14;101609.00;7356572;19;20458;-62
2022/05/01 01:22:47;;;;;;;0.00;0.00;;;;;;;12.26;74.38;101595.91;7358702;19;20042;-63
2022/05/01 01:25:13;;;;;;;0.00;0.00;;;;;;;12.28;73.49;101598.53;7356949;19;20002;-63
2022/05/01 01:27:42;;;;;;;0.00;0.00;;;;;;;12.27;74.15;101599.41;7361433;19;20557;-63
2022/05/01 01:32:54;;;;;;;0.00;0.00;;;;;;;12.19;74.13;101573.34;7362510;19;20043;-60
2022/05/01 01:35:23;;;;;;;0.10;0.10;;;;;;;12.18;73.70;101569.84;7361025;19;20010;-62
2022/05/01 01:37:52;;;;;;;0.00;0.00;;;;;;;12.23;73.92;101574.16;7361515;19;20458;-63
2022/05/01 01:40:35;;;;;;;0.00;0.00;;;;;;;12.27;74.04;101581.94;7350814;19;20778;-62
2022/05/01 01:43:04;;;;;;;0.00;0.00;;;;;;;12.27;73.88;101583.69;7360934;19;20006;-64
2022/05/01 01:45:29;;;;;;;0.00;0.00;;;;;;;12.27;73.50;101573.22;7360141;19;20101;-63
2022/05/01 01:48:14;;;;;;;0.00;0.00;;;;;;;12.29;73.28;101574.06;7349002;19;20090;-62
2022/05/01 01:50:41;;;;;;;0.00;0.00;;;;;;;12.20;74.56;101562.81;7349609;19;20010;-63
2022/05/01 01:53:07;;;;;;;0.00;0.00;;;;;;;12.24;74.37;101570.66;7358939;19;20029;-62
2022/05/01 01:55:33;;;;;;;0.08;0.08;;;;;;;12.24;74.11;101570.66;7356764;19;20095;-61
2022/05/01 01:57:59;;;;;;;0.00;0.00;;;;;;;12.20;74.45;101562.81;7351376;19;20074;-61
2022/05/01 02:00:25;;;;;;;0.08;0.08;;;;;;;12.04;74.56;101545.63;7355788;19;20010;-60
2022/05/01 02:03:01;;;;;;;0.00;0.00;;;;;;;12.19;74.03;101563.72;7351484;19;20056;-60
2022/05/01 02:05:27;;;;;;;0.00;0.00;;;;;;;12.01;74.85;101532.56;7340088;19;20017;-61
2022/05/01 02:07:53;;;;;;;0.00;0.00;;;;;;;12.12;74.10;101562.09;7357097;19;20363;-61
2022/05/01 02:10:19;;;;;;;0.00;0.00;;;;;;;11.99;74.84;101526.50;7348968;19;20478;-61
2022/05/01 02:12:45;;;;;;;0.00;0.00;;;;;;;12.05;75.02;101531.66;7353428;19;20019;-61
2022/05/01 02:15:10;;;;;;;0.00;0.00;;;;;;;12.04;74.68;101536.91;7350179;19;21058;-61
2022/05/01 02:17:39;;;;;;;0.03;0.03;;;;;;;12.04;74.46;101556.09;7357170;19;20003;-60
2022/05/01 02:20:05;;;;;;;0.00;0.00;;;;;;;12.02;74.32;101533.47;7346837;19;20921;-61
2022/05/01 02:22:31;;;;;;;0.00;0.00;;;;;;;12.01;74.61;101536.94;7352766;19;20027;-61
2022/05/01 02:24:56;;;;;;;0.00;0.00;;;;;;;11.89;74.95;101509.22;7357121;19;19999;-61
2022/05/01 02:27:21;;;;;;;0.10;0.10;;;;;;;11.98;74.76;101537.88;7348697;19;20035;-60
2022/05/01 02:29:47;;;;;;;0.00;0.00;;;;;;;11.96;74.98;101529.16;7353194;19;20006;-61
2022/05/01 02:32:13;;;;;;;0.00;0.00;;;;;;;11.95;75.30;101520.44;7351669;19;20742;-61
2022/05/01 02:34:40;;;;;;;0.00;0.00;;;;;;;11.87;75.21;101519.72;7356554;19;20116;-61
2022/05/01 02:37:06;;;;;;;0.00;0.00;;;;;;;11.82;75.93;101507.59;7350898;19;20017;-59
2022/05/01 02:39:32;;;;;;;0.00;0.00;;;;;;;11.93;75.19;101513.53;7339502;19;19998;-60
2022/05/01 02:41:58;;;;;;;0.00;0.00;;;;;;;11.91;75.50;101508.31;7342287;19;20016;-61
2022/05/01 02:44:24;;;;;;;0.03;0.03;;;;;;;11.91;75.27;101515.28;7352816;19;20109;-61
2022/05/01 02:46:49;;;;;;;0.05;0.05;;;;;;;11.92;75.52;101511.81;7350230;19;20078;-60
2022/05/01 02:49:15;;;;;;;0.00;0.00;;;;;;;11.91;75.59;101510.94;7352236;19;20340;-61
2022/05/01 02:51:40;;;;;;;0.00;0.00;;;;;;;11.92;75.49;101511.81;7349438;19;20022;-61
2022/05/01 02:54:05;;;;;;;0.00;0.00;;;;;;;11.92;75.62;101506.56;7355334;19;20010;-61
2022/05/01 02:56:31;;;;;;;0.00;0.00;;;;;;;11.92;75.53;101501.34;7352306;19;20030;-58
2022/05/01 02:59:09;;;;;;;0.00;0.00;;;;;;;11.92;75.36;101501.34;7352565;19;20019;-62
2022/05/01 03:01:35;;;;;;;0.00;0.00;;;;;;;11.93;75.76;101497.81;7357265;19;20003;-62
2022/05/01 03:04:01;;;;;;;0.00;0.00;;;;;;;11.92;75.88;101502.19;7360165;19;20016;-61
2022/05/01 03:06:26;;;;;;;0.00;0.00;;;;;;;11.95;75.67;101501.25;7352763;19;20006;-62
2022/05/01 03:08:51;;;;;;;0.10;0.10;;;;;;;11.94;75.80;101489.06;7357377;19;20597;-62
2022/05/01 03:11:17;;;;;;;0.00;0.00;;;;;;;11.79;75.65;101468.34;7363072;19;20007;-62
2022/05/01 03:13:43;;;;;;;0.00;0.00;;;;;;;11.95;75.05;101493.41;7363881;19;20034;-62
2022/05/01 03:16:08;;;;;;;0.00;0.00;;;;;;;11.95;75.44;101485.56;7358723;19;20445;-61
2022/05/01 03:24:02;;;;;;;0.00;0.00;;;;;;;11.96;74.92;101484.66;7363545;19;20176;-62
2022/05/01 03:26:27;;;;;;;0.00;0.00;;;;;;;11.99;74.91;101496.84;7362678;19;20838;-62
2022/05/01 03:28:52;;;;;;;0.00;0.00;;;;;;;11.91;75.35;101483.88;7355473;19;20010;-62
2022/05/01 03:31:18;;;;;;;0.00;0.00;;;;;;;11.98;75.66;101490.75;7365320;19;20023;-63
2022/05/01 03:33:44;;;;;;;0.00;0.00;;;;;;;11.88;75.37;101457.78;7365208;19;20069;-63
2022/05/01 03:36:11;;;;;;;0.08;0.08;;;;;;;11.98;75.61;101476.81;7362754;19;20006;-62
2022/05/01 03:38:41;;;;;;;0.00;0.00;;;;;;;12.03;75.02;101483.69;7360798;19;20046;-62
2022/05/01 03:41:12;;;;;;;0.00;0.00;;;;;;;12.01;75.46;101469.75;7362984;19;20010;-62
2022/05/01 03:43:38;;;;;;;0.10;0.10;;;;;;;12.03;75.21;101477.59;7364363;19;20017;-62
2022/05/01 03:46:05;;;;;;;0.03;0.03;;;;;;;12.03;75.67;101473.22;7363378;19;20621;-63
2022/05/01 03:48:30;;;;;;;0.00;0.00;;;;;;;12.02;75.15;101466.25;7360471;19;20018;-62
2022/05/01 03:50:57;;;;;;;0.00;0.00;;;;;;;12.03;75.38;101467.13;7351652;19;20023;-63
2022/05/01 03:53:22;;;;;;;0.00;0.00;;;;;;;12.03;75.67;101473.22;7355936;19;20039;-62
2022/05/01 03:55:48;;;;;;;0.00;0.00;;;;;;;12.03;75.12;101465.38;7355663;19;20002;-64
2022/05/01 03:58:14;;;;;;;0.00;0.00;;;;;;;11.99;75.20;101450.59;7364942;19;20050;-62
2022/05/01 04:00:44;;;;;;;0.00;0.00;;;;;;;12.04;75.29;101464.47;7357193;19;20018;-61
2022/05/01 04:03:11;;;;;;;0.00;0.00;;;;;;;11.92;75.61;101439.38;7362524;19;20007;-60
2022/05/01 04:05:36;;;;;;;0.00;0.00;;;;;;;12.06;74.84;101462.69;7363446;19;20007;-63
2022/05/01 04:08:01;;;;;;;0.00;0.00;;;;;;;12.06;75.17;101456.59;7359655;19;20027;-62
2022/05/01 04:10:27;;;;;;;0.00;0.00;;;;;;;12.05;74.94;101460.09;7363449;19;20037;-63
2022/05/01 04:12:52;;;;;;;0.00;0.00;;;;;;;12.02;75.60;101445.31;7349105;19;20022;-62
2022/05/01 04:15:18;;;;;;;0.00;0.00;;;;;;;12.05;75.30;101450.50;7357862;19;20010;-62
2022/05/01 04:17:44;;;;;;;0.00;0.00;;;;;;;12.04;75.18;101446.16;7357472;19;20014;-62
2022/05/01 04:20:12;;;;;;;0.00;0.00;;;;;;;12.04;75.45;101448.78;7364173;19;20002;-62
2022/05/01 04:22:38;;;;;;;0.03;0.03;;;;;;;12.03;75.75;101431.34;7361696;19;20025;-62
2022/05/01 04:25:06;;;;;;;0.00;0.00;;;;;;;12.04;75.55;101432.19;7361482;19;20007;-62
2022/05/01 04:27:32;;;;;;;0.08;0.08;;;;;;;12.02;75.32;101440.09;7354730;19;20014;-62
2022/05/01 04:29:57;;;;;;;0.10;0.10;;;;;;;12.02;75.11;101440.09;7363535;19;20364;-62
2022/05/01 04:32:23;;;;;;;0.00;0.00;;;;;;;12.02;74.97;101424.38;7362306;19;20494;-62
2022/05/01 04:34:48;;;;;;;0.00;0.00;;;;;;;12.01;75.46;101427.00;7365416;19;20019;-62
2022/05/01 04:37:14;;;;;;;0.00;0.00;;;;;;;11.99;75.56;101432.28;7359854;19;20021;-62
2022/05/01 04:39:39;;;;;;;0.00;0.00;;;;;;;11.99;75.00;101434.91;7364480;19;20018;-63
2022/05/01 04:42:05;;;;;;;0.00;0.00;;;;;;;11.98;75.58;101422.69;7361578;19;20019;-61
2022/05/01 04:44:30;;;;;;;0.00;0.00;;;;;;;11.98;75.36;101430.56;7351242;19;20011;-62
2022/05/01 04:46:55;;;;;;;0.00;0.00;;;;;;;11.92;74.88;101412.34;7357820;19;20684;-62
2022/05/01 04:49:21;;;;;;;0.00;0.00;;;;;;;11.98;75.86;101427.94;7349731;19;20086;-62
2022/05/01 04:51:47;;;;;;;0.10;0.10;;;;;;;11.89;75.73;101412.38;7361008;19;20110;-62
2022/05/01 04:54:12;;;;;;;0.10;0.10;;;;;;;11.98;75.74;101427.94;7344313;19;20010;-62
2022/05/01 04:59:22;;;;;;;0.05;0.05;;;;;;;11.99;75.29;101429.66;7358781;19;20051;-62
2022/05/01 05:01:47;;;;;;;0.00;0.00;;;;;;;12.00;75.72;101426.16;7363979;19;20007;-62
2022/05/01 05:04:13;;;;;;;0.00;0.00;;;;;;;12.02;75.36;101424.38;7352182;19;20011;-62
2022/05/01 05:06:38;;;;;;;0.00;0.00;;;;;;;12.01;75.33;101422.63;7361037;19;20017;-62
2022/05/01 05:11:47;;;;;;;0.00;0.00;;;;;;;12.03;75.20;101420.88;7359571;19;20045;-62
2022/05/01 05:14:13;;;;;;;0.00;0.00;;;;;;;12.03;75.58;101425.25;7357471;19;20089;-63
2022/05/01 05:16:38;;;;;;;0.00;0.00;;;;;;;12.04;75.38;101417.34;7359068;19;20352;-62
2022/05/01 05:19:03;;;;;;;0.00;0.00;;;;;;;11.89;76.10;101413.25;7358492;19;20043;-62
2022/05/01 05:21:29;;;;;;;0.00;0.00;;;;;;;12.04;75.06;101414.75;7352938;19;20041;-62
2022/05/01 05:23:55;;;;;;;0.00;0.00;;;;;;;12.03;75.96;101410.41;7358514;19;19999;-62
2022/05/01 05:26:21;;;;;;;0.00;0.00;;;;;;;12.02;75.43;101416.53;7354741;19;20447;-62
2022/05/01 05:28:46;;;;;;;0.00;0.00;;;;;;;12.00;75.93;101415.69;7363137;19;20009;-62
2022/05/01 05:31:12;;;;;;;0.00;0.00;;;;;;;12.04;75.57;101425.22;7353023;19;20014;-62
2022/05/01 05:33:37;;;;;;;0.00;0.00;;;;;;;12.05;76.13;101419.06;7362514;19;20074;-62
2022/05/01 05:36:03;;;;;;;0.00;0.00;;;;;;;12.05;75.78;101413.84;7352129;19;20065;-62
2022/05/01 05:38:28;;;;;;;0.00;0.00;;;;;;;12.05;75.71;101413.84;7358774;19;20006;-62
2022/05/01 05:40:54;;;;;;;0.00;0.00;;;;;;;12.08;75.67;101418.19;7360039;19;20055;-63
2022/05/01 05:43:19;;;;;;;0.10;0.10;;;;;;;12.08;75.74;101413.81;7361603;19;21007;-62
2022/05/01 05:45:45;;;;;;;0.00;0.00;;;;;;;12.10;75.73;101421.63;7350024;19;20017;-62
2022/05/01 05:48:11;;;;;;;0.00;0.00;;;;;;;12.08;75.79;101415.56;7359428;19;20597;-62
2022/05/01 05:50:36;;;;;;;0.10;0.10;;;;;;;12.10;76.01;101417.25;7358186;19;20074;-63
2022/05/01 05:53:01;;;;;;;0.00;0.00;;;;;;;12.11;76.21;101425.97;7349402;19;20035;-62
2022/05/01 05:55:27;;;;;;;0.00;0.00;;;;;;;12.13;75.92;101427.66;7360500;19;20035;-63
2022/05/01 05:57:53;;;;;;;0.00;0.00;;;;;;;12.13;75.98;101422.44;7345867;19;20053;-62
2022/05/01 06:00:18;;;;;;;0.10;0.10;;;;;;;12.14;75.84;101428.53;7359783;19;20038;-63
2022/05/01 06:02:44;;;;;;;0.10;0.10;;;;;;;12.14;75.31;101418.91;7357474;19;20018;-62
2022/05/01 06:05:09;;;;;;;0.10;0.10;;;;;;;12.16;75.81;101416.28;7355730;19;20039;-61
2022/05/01 06:07:35;;;;;;;0.00;0.00;;;;;;;12.09;75.90;101409.44;7353549;19;20018;-62
2022/05/01 06:10:00;;;;;;;0.10;0.10;;;;;;;12.15;75.82;101423.25;7349911;19;20101;-60
2022/05/01 06:12:26;;;;;;;0.00;0.00;;;;;;;12.16;75.89;101411.88;7356654;19;20093;-62
2022/05/01 06:14:51;;;;;;;0.10;0.10;;;;;;;12.15;75.57;101411.94;7360531;19;20026;-62
2022/05/01 06:17:17;;;;;;;0.00;0.00;;;;;;;12.03;75.14;101389.47;7359312;19;20002;-61
2022/05/01 06:19:42;;;;;;;0.00;0.00;;;;;;;12.16;75.96;101414.50;7359113;19;20010;-62
2022/05/01 06:22:07;;;;;;;0.00;0.00;;;;;;;12.10;75.36;101391.06;7345437;19;20018;-62
2022/05/01 06:24:33;;;;;;;0.10;0.10;;;;;;;12.17;75.83;101403.16;7358616;19;20011;-62
2022/05/01 06:26:58;;;;;;;0.00;0.00;;;;;;;12.18;76.19;101399.66;7359915;19;20082;-61
2022/05/01 06:29:24;;;;;;;0.00;0.00;;;;;;;12.19;75.98;101401.38;7341419;19;20065;-62
2022/05/01 06:31:50;;;;;;;0.00;0.00;;;;;;;12.18;76.08;101396.19;7357038;19;20070;-62
2022/05/01 06:34:16;;;;;;;0.00;0.00;;;;;;;12.23;76.05;101401.34;7357452;19;20010;-62
2022/05/01 06:36:41;;;;;;;0.00;0.00;;;;;;;12.24;76.05;101392.56;7363485;19;20014;-61
2022/05/01 06:39:09;;;;;;;0.00;0.00;;;;;;;12.26;75.66;101385.53;7361364;19;20014;-60
2022/05/01 06:41:35;;;;;;;0.00;0.00;;;;;;;12.29;75.72;101385.50;7363849;19;20048;-62
2022/05/01 06:44:00;;;;;;;0.00;0.00;;;;;;;12.30;75.22;101392.47;7353525;19;20032;-61
2022/05/01 06:46:26;;;;;;;0.00;0.00;;;;;;;12.31;76.27;101388.94;7361106;19;20026;-62
2022/05/01 06:48:51;;;;;;;0.00;0.00;;;;;;;12.29;76.05;101390.75;7352683;19;20656;-62
2022/05/01 06:51:16;;;;;;;0.00;0.00;;;;;;;12.34;75.99;101397.63;7357017;19;20029;-62
2022/05/01 06:53:42;;;;;;;0.00;0.00;;;;;;;12.38;75.79;101390.56;7363440;19;20019;-63
2022/05/01 06:56:07;;;;;;;0.00;0.00;;;;;;;12.39;75.72;101398.38;7353855;19;20005;-62
2022/05/01 06:58:34;;;;;;;0.00;0.00;;;;;;;12.32;76.06;101377.59;7359991;19;20017;-62
2022/05/01 07:01:00;;;;;;;0.00;0.00;;;;;;;12.43;76.15;101393.97;7362554;19;20743;-62
2022/05/01 07:03:26;;;;;;;0.00;0.00;;;;;;;12.45;74.92;101392.16;7360259;19;20034;-62
2022/05/01 07:05:51;;;;;;;0.00;0.00;;;;;;;12.45;75.74;101392.16;7363053;19;20010;-62
2022/05/01 07:08:16;;;;;;;0.00;0.00;;;;;;;12.44;75.58;101401.78;7361702;19;20740;-62
2022/05/01 07:10:42;;;;;;;0.10;0.10;;;;;;;12.44;75.93;101393.06;7358621;19;20040;-62
2022/05/01 07:13:09;;;;;;;0.10;0.10;;;;;;;12.43;75.66;101383.50;7357278;19;20014;-62
2022/05/01 07:15:35;;;;;;;0.00;0.00;;;;;;;12.46;75.74;101388.66;7356370;19;20014;-62
2022/05/01 07:18:01;;;;;;;0.10;0.10;;;;;;;12.37;75.29;101371.38;7363910;19;20007;-62
2022/05/01 07:20:26;;;;;;;0.00;0.00;;;;;;;12.48;76.13;101389.50;7336617;19;20772;-62
2022/05/01 07:22:52;;;;;;;0.00;0.00;;;;;;;12.49;75.94;101392.97;7363501;19;20017;-62
2022/05/01 07:25:17;;;;;;;0.00;0.00;;;;;;;12.51;75.75;101385.94;7362245;19;20007;-63
2022/05/01 07:27:42;;;;;;;0.00;0.00;;;;;;;12.51;75.73;101384.19;7355502;19;20557;-60
2022/05/01 07:30:08;;;;;;;0.00;0.00;;;;;;;12.56;75.39;101373.59;7357690;19;20083;-62
2022/05/01 07:32:33;;;;;;;0.00;0.00;;;;;;;12.56;75.56;101384.09;7358241;19;20013;-62
2022/05/01 07:34:59;;;;;;;0.00;0.00;;;;;;;12.58;76.03;101382.31;7355339;19;20376;-61
2022/05/01 07:37:26;;;;;;;0.03;0.03;;;;;;;12.60;75.60;101385.75;7362191;19;20677;-62
2022/05/01 07:39:52;;;;;;;0.10;0.10;;;;;;;12.59;75.74;101374.44;7358766;19;20458;-62
2022/05/01 07:42:18;;;;;;;0.00;0.00;;;;;;;12.63;76.11;101375.22;7359619;19;20007;-61
2022/05/01 07:44:43;;;;;;;0.00;0.00;;;;;;;12.66;75.92;101391.72;7362202;19;20010;-61
2022/05/01 07:47:08;;;;;;;0.00;0.00;;;;;;;12.66;75.91;101369.91;7349791;19;20039;-62
2022/05/01 07:49:34;;;;;;;0.10;0.10;;;;;;;12.67;75.97;101372.53;7360670;19;20018;-61
2022/05/01 07:51:59;;;;;;;0.10;0.10;;;;;;;12.69;76.07;101383.81;7355409;19;20006;-61
2022/05/01 07:54:25;;;;;;;0.00;0.00;;;;;;;12.70;75.98;101382.06;7357627;19;20010;-62
2022/05/01 07:56:50;;;;;;;0.00;0.00;;;;;;;12.70;76.15;101376.81;7359612;19;20027;-61
2022/05/01 07:59:16;;;;;;;0.00;0.00;;;;;;;12.70;76.07;101377.69;7346362;19;20007;-61
2022/05/01 08:01:41;;;;;;;0.10;0.10;;;;;;;12.73;76.08;101377.63;7360722;19;20003;-61
2022/05/01 08:06:51;;;;;;;0.00;0.00;;;;;;;12.74;75.91;101373.25;7358525;19;20005;-61
2022/05/01 08:09:16;;;;;;;0.00;0.00;;;;;;;12.75;75.86;101368.88;7357139;19;20010;-61
2022/05/01 08:11:42;;;;;;;0.00;0.00;;;;;;;12.73;75.82;101367.16;7359867;19;20021;-61
2022/05/01 08:14:09;;;;;;;0.00;0.00;;;;;;;12.71;75.96;101363.69;7362132;19;20007;-61
2022/05/01 08:16:34;;;;;;;0.10;0.10;;;;;;;12.73;75.97;101356.66;7354972;19;20010;-62
2022/05/01 08:21:44;;;;;;;0.10;0.10;;;;;;;12.63;75.79;101344.66;7360574;19;20590;-61
2022/05/01 08:24:09;;;;;;;0.00;0.00;;;;;;;12.75;76.02;101358.38;7358994;19;20002;-60
2022/05/01 08:26:35;;;;;;;0.00;0.00;;;;;;;12.67;75.80;101346.31;7360855;19;20085;-61
2022/05/01 08:29:01;;;;;;;0.00;0.00;;;;;;;12.78;75.69;101363.56;7356920;19;20018;-61
2022/05/01 08:31:27;;;;;;;0.00;0.00;;;;;;;12.79;76.06;101365.28;7357969;19;20002;-61
2022/05/01 08:33:54;;;;;;;0.00;0.00;;;;;;;12.80;75.40;101367.00;7350546;19;20003;-61
2022/05/01 08:36:20;;;;;;;0.08;0.08;;;;;;;12.81;76.24;101363.50;7348325;19;20014;-61
2022/05/01 08:38:45;;;;;;;0.00;0.00;;;;;;;12.82;76.26;101367.81;7358788;19;20848;-61
2022/05/01 08:41:11;;;;;;;0.00;0.00;;;;;;;12.84;75.79;101373.91;7354393;19;20033;-60
2022/05/01 08:43:37;;;;;;;0.10;0.10;;;;;;;12.86;75.60;101372.13;7354611;19;20842;-60
2022/05/01 08:46:25;;;;;;;0.10;0.10;;;;;;;12.91;75.26;101365.00;7358585;19;20014;-60
2022/05/01 08:49:01;;;;;;;0.05;0.05;;;;;;;12.87;75.59;101376.47;7347022;19;20021;-60
2022/05/01 08:51:31;;;;;;;0.00;0.00;;;;;;;12.96;75.90;101379.75;7348275;19;20786;-61
2022/05/01 08:53:58;;;;;;;0.00;0.00;;;;;;;12.98;76.54;101387.59;7357676;19;20017;-61
2022/05/01 08:56:24;;;;;;;0.00;0.00;;;;;;;12.97;76.27;101360.50;7361716;19;21345;-60
2022/05/01 08:58:50;;;;;;;0.03;0.03;;;;;;;12.93;76.01;101352.75;7347437;19;20557;-61
2022/05/01 09:01:17;;;;;;;0.10;0.10;;;;;;;12.97;76.35;101354.38;7354017;19;20032;-61
2022/05/01 09:03:44;;;;;;;0.10;0.10;;;;;;;13.17;76.22;101382.78;7358320;19;20022;-60
2022/05/01 09:06:10;;;;;;;0.00;0.00;;;;;;;13.18;76.27;101377.53;7360953;19;20014;-59
2022/05/01 09:08:41;;;;;;;0.00;0.00;;;;;;;13.24;75.95;101380.03;7357376;19;20719;-59
2022/05/01 09:13:52;;;;;;;0.03;0.03;;;;;;;13.24;77.46;101395.78;7357926;19;20518;-60
2022/05/01 09:16:17;;;;;;;0.05;0.05;;;;;;;13.22;77.62;101400.19;7355496;19;20002;-60
2022/05/01 09:18:46;;;;;;;0.10;0.10;;;;;;;13.26;78.07;101397.50;7354232;19;20013;-61
2022/05/01 09:21:12;;;;;;;0.00;0.00;;;;;;;13.23;78.22;101409.78;7354946;19;20006;-60
2022/05/01 09:23:38;;;;;;;0.00;0.00;;;;;;;13.26;78.24;101400.13;7357875;19;20023;-61
2022/05/01 09:26:05;;;;;;;0.00;0.00;;;;;;;13.28;78.19;101395.69;7341526;19;20006;-61
2022/05/01 09:28:31;;;;;;;0.00;0.00;;;;;;;13.27;78.57;101394.81;7352342;19;20042;-60
2022/05/01 09:30:56;;;;;;;0.00;0.00;;;;;;;13.31;78.59;101395.63;7353600;19;20010;-61
2022/05/01 09:33:21;;;;;;;0.00;0.00;;;;;;;13.32;78.72;101398.22;7341917;19;20360;-61
2022/05/01 09:35:48;;;;;;;0.10;0.10;;;;;;;13.33;78.70;101388.56;7351080;19;20017;-61
2022/05/01 09:38:22;;;;;;;0.00;0.00;;;;;;;13.39;78.61;101409.44;7354151;19;21009;-59
2022/05/01 09:40:55;;;;;;;0.00;0.00;;;;;;;13.26;79.11;101381.75;7346428;19;20010;-61
2022/05/01 09:43:37;;;;;;;0.05;0.05;;;;;;;13.46;78.23;101411.03;7353302;19;20468;-61
2022/05/01 09:46:21;;;;;;;0.00;0.00;;;;;;;13.50;78.45;101412.69;7337930;19;20011;-62
2022/05/01 09:49:07;;;;;;;0.05;0.05;;;;;;;13.35;78.30;101373.69;7352312;19;20102;-62
2022/05/01 09:51:34;;;;;;;0.00;0.00;;;;;;;13.53;78.85;101412.59;7339036;19;20009;-61
2022/05/01 09:54:03;;;;;;;0.00;0.00;;;;;;;13.57;78.97;101413.38;7355419;19;20015;-61
2022/05/01 09:56:46;;;;;;;0.00;0.00;;;;;;;13.62;78.27;101409.75;7353574;19;20016;-62
2022/05/01 09:59:13;;;;;;;0.00;0.00;;;;;;;13.62;79.10;101416.75;7356901;19;20081;-62
2022/05/01 10:01:38;;;;;;;0.00;0.00;;;;;;;13.66;78.96;101418.44;7354909;19;20179;-60
2022/05/01 10:04:04;;;;;;;0.00;0.00;;;;;;;13.61;78.54;101402.78;7351983;19;20537;-61
2022/05/01 10:06:31;;;;;;;0.00;0.00;;;;;;;13.57;78.59;101393.25;7348527;19;20023;-60
2022/05/01 10:08:57;;;;;;;0.00;0.00;;;;;;;13.60;78.53;101401.06;7358165;19;20022;-62
2022/05/01 10:11:28;;;;;;;0.00;0.00;;;;;;;13.79;78.56;101435.63;7363788;19;20007;-62
2022/05/01 10:13:55;;;;;;;0.00;0.00;;;;;;;13.80;78.28;101420.72;7363086;19;21608;-61
2022/05/01 10:16:20;;;;;;;0.00;0.00;;;;;;;13.77;78.32;101422.50;7361744;19;20003;-61
2022/05/01 10:18:46;;;;;;;0.00;0.00;;;;;;;13.82;78.64;101429.41;7357344;19;20007;-62
2022/05/01 10:21:12;;;;;;;0.00;0.00;;;;;;;13.84;78.45;101428.50;7366462;19;20007;-62
2022/05/01 10:23:39;;;;;;;0.10;0.10;;;;;;;13.85;78.44;101430.22;7361631;19;20033;-62
2022/05/01 10:26:06;;;;;;;;;;;;;;;13.92;76.62;101420.41;7366693;19;22350;-61
2022/05/01 10:28:53;;;;;;;0.00;0.00;;;;;;;13.91;77.88;101429.19;7361310;19;19922;-62
2022/05/01 10:35:14;;;;;;;0.00;0.00;;;;;;;13.94;77.45;101435.25;7150613;19;2004322;-60
2022/05/01 10:38:17;;;;;;;0.10;0.10;;;;;;;13.95;77.20;101431.69;7358096;19;20027;-62
2022/05/01 10:40:55;;;;;;;0.00;0.00;;;;;;;13.97;77.38;101429.03;7253640;19;2004497;-61
2022/05/01 10:43:38;;;;;;;0.00;0.00;;;;;;;13.90;77.07;101416.97;7365760;19;20065;-62
2022/05/01 10:46:18;;;;;;;0.00;0.00;;;;;;;13.98;77.24;101425.50;7367199;19;20099;-62
2022/05/01 10:48:44;;;;;;;0.00;0.00;;;;;;;13.87;77.43;101411.78;7367878;19;20013;-62
2022/05/01 10:51:29;;;;;;;0.00;0.00;;;;;;;13.97;76.78;101429.88;7365931;19;20003;-62
2022/05/01 10:54:13;;;;;;;0.05;0.05;;;;;;;13.98;76.95;101423.72;7364125;19;20002;-63
2022/05/01 10:56:40;;;;;;;0.00;0.00;;;;;;;13.95;77.30;101417.72;7363494;19;20008;-61
2022/05/01 10:59:39;;;;;;;0.00;0.00;;;;;;;14.01;76.60;101421.03;7367992;19;20348;-60
2022/05/01 11:02:28;;;;;;;0.00;0.00;;;;;;;14.00;76.51;101416.69;7259677;19;2004563;-62
2022/05/01 11:04:55;;;;;;;0.10;0.10;;;;;;;13.98;76.52;101420.25;7241973;19;2004552;-62
2022/05/01 11:07:21;;;;;;;0.00;0.00;;;;;;;13.97;76.45;101415.91;7373029;19;20013;-62
2022/05/01 11:09:49;;;;;;;0.00;0.00;;;;;;;13.96;76.49;101415.03;7358469;19;20017;-62
2022/05/01 11:12:19;;;;;;;0.00;0.00;;;;;;;13.98;75.98;101415.00;7361600;19;20014;-62
2022/05/01 11:14:59;;;;;;;0.10;0.10;;;;;;;14.00;75.76;101407.97;7368669;19;20010;-62
2022/05/01 11:17:36;;;;;;;0.10;0.10;;;;;;;13.98;76.21;101417.63;7358704;19;20003;-61
2022/05/01 11:20:23;;;;;;;0.00;0.00;;;;;;;13.98;76.15;101409.75;7364435;19;20283;-62
2022/05/01 11:22:49;;;;;;;0.00;0.00;;;;;;;13.91;76.80;101405.56;7362375;19;20362;-62
2022/05/01 11:25:39;;;;;;;0.03;0.03;;;;;;;13.98;76.47;101410.59;7358210;19;20024;-61
2022/05/01 11:28:05;;;;;;;0.00;0.00;;;;;;;13.97;76.01;101408.88;7350952;19;20009;-61
2022/05/01 11:30:31;;;;;;;0.00;0.00;;;;;;;13.98;76.62;101409.75;7360974;19;20023;-62
2022/05/01 11:33:06;;;;;;;0.10;0.10;;;;;;;14.00;76.50;101408.81;7356189;19;20006;-61
2022/05/01 11:35:54;;;;;;;0.00;0.00;;;;;;;14.05;76.15;101413.09;7360378;19;20728;-62
2022/05/01 11:38:24;;;;;;;0.10;0.10;;;;;;;14.02;77.32;101412.25;7349759;19;20014;-62
2022/05/01 11:40:55;;;;;;;0.00;0.00;;;;;;;14.09;77.25;101412.97;7364562;19;20010;-62
2022/05/01 11:43:21;;;;;;;0.00;0.00;;;;;;;14.11;77.67;101405.91;7349574;19;20002;-62
2022/05/01 11:45:47;;;;;;;0.00;0.00;;;;;;;14.18;77.77;101411.84;7363300;19;19999;-62
2022/05/01 11:48:19;;;;;;;0.03;0.03;;;;;;;14.25;77.65;101413.44;7358922;19;20022;-62
2022/05/01 11:50:51;;;;;;;0.00;0.00;;;;;;;14.24;77.34;101395.94;7363382;19;20006;-62
2022/05/01 11:53:28;;;;;;;0.00;0.00;;;;;;;14.41;76.96;101420.00;7355914;19;20009;-62
2022/05/01 12:04:36;;;;;;;0.00;0.00;;;;;;;14.60;76.36;101409.88;7352496;19;20013;-62
2022/05/01 12:07:20;;;;;;;0.00;0.00;;;;;;;14.59;76.86;101399.38;7255113;19;2004597;-61
2022/05/01 12:09:47;;;;;;;0.00;0.00;;;;;;;14.61;76.42;101406.34;7363288;19;19999;-62